Terminal Aerodrome Forecast
Issued by NWS

Home | Current Version | Previous Version | Text Only | Print | Product List | Glossary On
Versions: 1 2 3 4 5 6 7 8 9 10 11 12 13 14 15 16 17 18 19 20 21 22
000
FTUS41 KPBZ 211412 AAA
TAFDUJ
TAF AMD
KDUJ 211412Z 2114/2212 22014G25KT P6SM BKN040
     FM211700 29012G22KT P6SM OVC015
     FM212300 33010KT P6SM OVC035
     FM220800 06010KT 5SM -FZRA OVC008=

USA.gov is the U.S. government's official web portal to all federal, state and local government web resources and services.